Time,TemperatureF,DewpointF,PressureIn,WindDirection,WindDirectionDegrees,WindSpeedMPH,WindSpeedGustMPH,Humidity,HourlyPrecipIn,Conditions,Clouds,dailyrainin,SoftwareType,DateUTC
2013-02-06 00:04:00,35.9,23.0,30.00,SSE,157,0.0,0.0,59,0.00,,---,0.00,VWS V14.01,2013-02-06 08:04:00,
2013-02-06 00:09:00,35.8,23.7,30.00,SSE,155,0.0,0.0,61,0.00,,---,0.00,VWS V14.01,2013-02-06 08:09:00,
2013-02-06 00:14:00,35.6,23.1,30.00,SSE,155,0.0,0.0,60,0.00,,---,0.00,VWS V14.01,2013-02-06 08:14:00,
2013-02-06 00:19:00,35.5,23.0,30.00,SSE,167,0.0,0.0,60,0.00,,---,0.00,VWS V14.01,2013-02-06 08:19:00,
2013-02-06 00:24:00,35.4,22.9,30.00,SSE,166,0.0,0.0,60,0.00,,---,0.00,VWS V14.01,2013-02-06 08:24:00,
2013-02-06 00:29:00,35.4,22.9,29.99,SSE,166,0.0,0.0,60,0.00,,---,0.00,VWS V14.01,2013-02-06 08:29:00,
2013-02-06 00:34:00,35.3,22.8,29.99,SSE,166,0.0,0.0,60,0.00,,---,0.00,VWS V14.01,2013-02-06 08:34:00,
2013-02-06 00:39:00,35.3,22.8,29.99,SSE,167,0.0,0.0,60,0.00,,---,0.00,VWS V14.01,2013-02-06 08:39:00,
2013-02-06 00:44:00,35.3,22.8,29.99,SSE,166,0.0,0.0,60,0.00,,---,0.00,VWS V14.01,2013-02-06 08:44:00,
2013-02-06 00:49:00,35.4,22.9,29.99,SSE,166,0.0,0.0,60,0.00,,---,0.00,VWS V14.01,2013-02-06 08:49:00,
2013-02-06 00:54:00,35.5,22.6,29.99,SSE,166,0.0,0.0,59,0.00,,---,0.00,VWS V14.01,2013-02-06 08:54:00,
2013-02-06 00:59:00,35.7,22.4,29.99,SE,143,0.0,0.0,58,0.00,,---,0.00,VWS V14.01,2013-02-06 08:59:00,
2013-02-06 01:05:00,36.0,22.7,29.98,SSW,194,0.0,0.0,58,0.00,,---,0.00,VWS V14.01,2013-02-06 09:05:00,
2013-02-06 01:10:00,36.1,22.8,29.98,SSW,194,0.0,0.0,58,0.00,,---,0.00,VWS V14.01,2013-02-06 09:10:00,
2013-02-06 01:15:00,36.1,23.2,29.98,SSE,150,0.0,0.0,59,0.00,,---,0.00,VWS V14.01,2013-02-06 09:15:00,
2013-02-06 01:20:00,36.1,23.2,29.98,SSE,150,0.0,0.0,59,0.00,,---,0.00,VWS V14.01,2013-02-06 09:20:00,
2013-02-06 01:25:00,35.9,23.0,29.98,SSE,149,0.0,0.0,59,0.00,,---,0.00,VWS V14.01,2013-02-06 09:25:00,
2013-02-06 01:30:00,35.7,23.2,29.98,SSE,149,0.0,0.0,60,0.00,,---,0.00,VWS V14.01,2013-02-06 09:30:00,
2013-02-06 01:35:00,35.6,23.5,29.98,SSW,205,0.0,1.0,61,0.00,,---,0.00,VWS V14.01,2013-02-06 09:35:00,
2013-02-06 01:40:00,35.5,23.4,29.98,NW,319,0.0,1.0,61,0.00,,---,0.00,VWS V14.01,2013-02-06 09:40:00,
2013-02-06 01:45:00,35.5,23.4,29.98,ESE,115,0.0,0.0,61,0.00,,---,0.00,VWS V14.01,2013-02-06 09:45:00,
2013-02-06 01:50:00,35.3,23.6,29.98,ESE,114,0.0,0.0,62,0.00,,---,0.00,VWS V14.01,2013-02-06 09:50:00,
2013-02-06 01:55:00,34.9,23.2,29.98,ESE,114,0.0,0.0,62,0.00,,---,0.00,VWS V14.01,2013-02-06 09:55:00,
2013-02-06 02:00:00,34.5,23.6,29.98,ESE,115,0.0,0.0,64,0.00,,---,0.00,VWS V14.01,2013-02-06 10:00:00,
2013-02-06 02:05:00,34.3,24.1,29.98,NW,323,0.0,3.0,66,0.00,,---,0.00,VWS V14.01,2013-02-06 10:05:00,
2013-02-06 02:10:00,34.6,23.7,29.98,SSE,154,0.0,0.0,64,0.00,,---,0.00,VWS V14.01,2013-02-06 10:10:00,
2013-02-06 02:15:00,34.4,23.5,29.98,SSE,153,0.0,0.0,64,0.00,,---,0.00,VWS V14.01,2013-02-06 10:15:00,
2013-02-06 02:20:00,34.1,23.2,29.98,SSE,150,0.0,0.0,64,0.00,,---,0.00,VWS V14.01,2013-02-06 10:20:00,
2013-02-06 02:25:00,33.9,23.4,29.97,SSW,207,0.0,0.0,65,0.00,,---,0.00,VWS V14.01,2013-02-06 10:25:00,
2013-02-06 02:30:00,33.7,23.2,29.97,SSW,197,0.0,0.0,65,0.00,,---,0.00,VWS V14.01,2013-02-06 10:30:00,
2013-02-06 02:35:00,33.6,23.1,29.96,South,186,1.0,2.0,65,0.00,,---,0.00,VWS V14.01,2013-02-06 10:35:00,
2013-02-06 02:40:00,33.6,23.5,29.96,SSE,160,0.0,0.0,66,0.00,,---,0.00,VWS V14.01,2013-02-06 10:40:00,
2013-02-06 02:45:00,33.5,23.7,29.96,South,176,0.0,1.0,67,0.00,,---,0.00,VWS V14.01,2013-02-06 10:45:00,
2013-02-06 02:50:00,33.5,23.7,29.96,SE,146,1.0,1.0,67,0.00,,---,0.00,VWS V14.01,2013-02-06 10:50:00,
2013-02-06 02:55:00,33.5,23.7,29.95,SSW,197,0.0,0.0,67,0.00,,---,0.00,VWS V14.01,2013-02-06 10:55:00,
2013-02-06 03:00:00,33.5,23.7,29.95,SSE,159,0.0,0.0,67,0.00,,---,0.00,VWS V14.01,2013-02-06 11:00:00,
2013-02-06 03:05:00,33.5,24.1,29.95,SE,146,0.0,0.0,68,0.00,,---,0.00,VWS V14.01,2013-02-06 11:05:00,
2013-02-06 03:11:00,33.5,23.7,29.95,SSW,205,0.0,1.0,67,0.00,,---,0.00,VWS V14.01,2013-02-06 11:11:00,
2013-02-06 03:16:00,33.5,23.4,29.94,SSW,197,0.0,0.0,66,0.00,,---,0.00,VWS V14.01,2013-02-06 11:16:00,
2013-02-06 03:21:00,33.1,23.0,29.95,South,172,0.0,0.0,66,0.00,,---,0.00,VWS V14.01,2013-02-06 11:21:00,
2013-02-06 03:26:00,32.8,22.7,29.94,SSW,207,0.0,0.0,66,0.00,,---,0.00,VWS V14.01,2013-02-06 11:26:00,
2013-02-06 03:31:00,32.5,22.4,29.94,SSW,194,0.0,0.0,66,0.00,,---,0.00,VWS V14.01,2013-02-06 11:31:00,
2013-02-06 03:36:00,32.3,22.2,29.94,SE,143,0.0,0.0,66,0.00,,---,0.00,VWS V14.01,2013-02-06 11:36:00,
2013-02-06 03:41:00,31.9,21.9,29.95,SSE,154,0.0,0.0,66,0.00,,---,0.00,VWS V14.01,2013-02-06 11:41:00,
2013-02-06 03:46:00,31.5,21.8,29.94,SSE,151,0.0,0.0,67,0.00,,---,0.00,VWS V14.01,2013-02-06 11:46:00,
2013-02-06 03:51:00,30.9,21.2,29.95,SE,128,1.0,1.0,67,0.00,,---,0.00,VWS V14.01,2013-02-06 11:51:00,
2013-02-06 03:56:00,30.9,21.2,29.95,ENE,74,0.0,0.0,67,0.00,,---,0.00,VWS V14.01,2013-02-06 11:56:00,
2013-02-06 04:01:00,30.6,21.3,29.94,ENE,75,0.0,0.0,68,0.00,,---,0.00,VWS V14.01,2013-02-06 12:01:00,
2013-02-06 04:06:00,30.3,21.0,29.95,ENE,75,0.0,0.0,68,0.00,,---,0.00,VWS V14.01,2013-02-06 12:06:00,
2013-02-06 04:11:00,30.1,21.2,29.95,ENE,75,0.0,0.0,69,0.00,,---,0.00,VWS V14.01,2013-02-06 12:11:00,
2013-02-06 04:16:00,30.1,20.8,29.94,ESE,114,0.0,0.0,68,0.00,,---,0.00,VWS V14.01,2013-02-06 12:16:00,
2013-02-06 04:21:00,29.9,20.6,29.95,ESE,115,0.0,0.0,68,0.00,,---,0.00,VWS V14.01,2013-02-06 12:21:00,
2013-02-06 04:26:00,29.6,20.7,29.94,ESE,114,0.0,0.0,69,0.00,,---,0.00,VWS V14.01,2013-02-06 12:26:00,
2013-02-06 04:31:00,29.4,20.5,29.94,SW,218,0.0,0.0,69,0.00,,---,0.00,VWS V14.01,2013-02-06 12:31:00,
2013-02-06 04:36:00,29.1,20.5,29.94,SW,218,0.0,0.0,70,0.00,,---,0.00,VWS V14.01,2013-02-06 12:36:00,
2013-02-06 04:41:00,28.6,20.4,29.95,SW,218,0.0,0.0,71,0.00,,---,0.00,VWS V14.01,2013-02-06 12:41:00,
2013-02-06 04:46:00,28.3,20.4,29.95,SW,218,0.0,0.0,72,0.00,,---,0.00,VWS V14.01,2013-02-06 12:46:00,
2013-02-06 04:51:00,28.2,20.4,29.95,SW,218,0.0,0.0,72,0.00,,---,0.00,VWS V14.01,2013-02-06 12:51:00,
2013-02-06 04:57:00,27.9,20.7,29.95,SW,218,0.0,0.0,74,0.00,,---,0.00,VWS V14.01,2013-02-06 12:57:00,
2013-02-06 05:02:00,27.5,20.6,29.95,SW,218,0.0,0.0,75,0.00,,---,0.00,VWS V14.01,2013-02-06 13:02:00,
2013-02-06 05:07:00,27.0,20.1,29.95,SW,218,0.0,0.0,75,0.00,,---,0.00,VWS V14.01,2013-02-06 13:07:00,
2013-02-06 05:12:00,26.9,19.1,29.95,SW,218,0.0,0.0,72,0.00,,---,0.00,VWS V14.01,2013-02-06 13:12:00,
2013-02-06 05:17:00,26.6,19.4,29.95,SW,218,0.0,0.0,74,0.00,,---,0.00,VWS V14.01,2013-02-06 13:17:00,
2013-02-06 05:22:00,26.1,19.3,29.95,SW,218,0.0,0.0,75,0.00,,---,0.00,VWS V14.01,2013-02-06 13:22:00,
2013-02-06 05:27:00,25.7,18.9,29.95,SW,218,0.0,0.0,75,0.00,,---,0.00,VWS V14.01,2013-02-06 13:27:00,
2013-02-06 05:32:00,25.2,19.0,29.96,SW,218,0.0,0.0,77,0.00,,---,0.00,VWS V14.01,2013-02-06 13:32:00,
2013-02-06 05:37:00,25.0,18.5,29.95,SW,217,0.0,0.0,76,0.00,,---,0.00,VWS V14.01,2013-02-06 13:37:00,
2013-02-06 05:42:00,24.8,16.4,29.96,SW,217,0.0,0.0,70,0.00,,---,0.00,VWS V14.01,2013-02-06 13:42:00,
2013-02-06 05:47:00,25.0,16.9,29.96,SW,217,1.0,1.0,71,0.00,,---,0.00,VWS V14.01,2013-02-06 13:47:00,
2013-02-06 05:52:00,25.0,16.3,29.96,SSW,198,0.0,0.0,69,0.00,,---,0.00,VWS V14.01,2013-02-06 13:52:00,
2013-02-06 05:57:00,24.9,15.9,29.96,SSW,199,0.0,0.0,68,0.00,,---,0.00,VWS V14.01,2013-02-06 13:57:00,
2013-02-06 06:02:00,25.2,16.1,29.96,North,4,1.0,1.0,68,0.00,,---,0.00,VWS V14.01,2013-02-06 14:02:00,
2013-02-06 06:07:00,25.3,16.6,29.96,North,4,0.0,0.0,69,0.00,,---,0.00,VWS V14.01,2013-02-06 14:07:00,
2013-02-06 06:12:00,25.1,15.4,29.96,North,4,0.0,0.0,66,0.00,,---,0.00,VWS V14.01,2013-02-06 14:12:00,
2013-02-06 06:17:00,25.1,16.7,29.96,North,5,0.0,0.0,70,0.00,,---,0.00,VWS V14.01,2013-02-06 14:17:00,
2013-02-06 06:22:00,25.0,16.6,29.96,North,4,0.0,0.0,70,0.00,,---,0.00,VWS V14.01,2013-02-06 14:22:00,
2013-02-06 06:27:00,24.7,16.6,29.97,North,5,0.0,0.0,71,0.00,,---,0.00,VWS V14.01,2013-02-06 14:27:00,
2013-02-06 06:32:00,24.5,17.4,29.97,North,4,0.0,0.0,74,0.00,,---,0.00,VWS V14.01,2013-02-06 14:32:00,
2013-02-06 06:37:00,24.6,16.5,29.97,North,4,0.0,0.0,71,0.00,,---,0.00,VWS V14.01,2013-02-06 14:37:00,
2013-02-06 06:42:00,24.8,16.4,29.97,North,5,0.0,0.0,70,0.00,,---,0.00,VWS V14.01,2013-02-06 14:42:00,
2013-02-06 06:47:00,25.9,16.8,29.98,NNE,23,0.0,0.0,68,0.00,,---,0.00,VWS V14.01,2013-02-06 14:47:00,
2013-02-06 06:52:00,26.8,15.2,29.97,SSW,204,0.0,0.0,61,0.00,,---,0.00,VWS V14.01,2013-02-06 14:52:00,
2013-02-06 06:57:00,26.7,15.4,29.97,SSW,201,0.0,0.0,62,0.00,,---,0.00,VWS V14.01,2013-02-06 14:57:00,
2013-02-06 07:02:00,26.2,15.0,29.98,SSW,201,0.0,0.0,62,0.00,,---,0.00,VWS V14.01,2013-02-06 15:02:00,
2013-02-06 07:07:00,26.1,15.6,29.98,SSW,205,0.0,1.0,64,0.00,,---,0.00,VWS V14.01,2013-02-06 15:07:00,
2013-02-06 07:12:00,26.1,14.9,29.98,SW,224,0.0,0.0,62,0.00,,---,0.00,VWS V14.01,2013-02-06 15:12:00,
2013-02-06 07:17:00,26.1,14.5,29.98,SSW,204,0.0,0.0,61,0.00,,---,0.00,VWS V14.01,2013-02-06 15:17:00,
2013-02-06 07:22:00,25.9,13.9,29.98,SSW,197,0.0,0.0,60,0.00,,---,0.00,VWS V14.01,2013-02-06 15:22:00,
2013-02-06 07:27:00,25.9,13.6,29.98,South,187,0.0,0.0,59,0.00,,---,0.00,VWS V14.01,2013-02-06 15:27:00,
2013-02-06 07:33:00,26.2,12.7,29.99,South,187,0.0,0.0,56,0.00,,---,0.00,VWS V14.01,2013-02-06 15:33:00,
2013-02-06 07:38:00,26.5,12.1,29.99,South,187,0.0,0.0,54,0.00,,---,0.00,VWS V14.01,2013-02-06 15:38:00,
2013-02-06 07:43:00,27.3,12.4,29.99,South,187,0.0,0.0,53,0.00,,---,0.00,VWS V14.01,2013-02-06 15:43:00,
2013-02-06 07:48:00,27.5,12.2,29.99,South,187,0.0,0.0,52,0.00,,---,0.00,VWS V14.01,2013-02-06 15:48:00,
2013-02-06 07:53:00,27.8,12.0,29.99,South,187,0.0,0.0,51,0.00,,---,0.00,VWS V14.01,2013-02-06 15:53:00,
2013-02-06 07:58:00,28.9,12.1,30.00,SE,140,0.0,0.0,49,0.00,,---,0.00,VWS V14.01,2013-02-06 15:58:00,
2013-02-06 08:03:00,30.4,11.6,30.00,SE,139,0.0,0.0,45,0.00,,---,0.00,VWS V14.01,2013-02-06 16:03:00,
2013-02-06 08:08:00,31.6,12.2,30.01,SSE,147,0.0,0.0,44,0.00,,---,0.00,VWS V14.01,2013-02-06 16:08:00,
2013-02-06 08:13:00,33.3,11.6,30.01,ESE,108,2.0,2.0,40,0.00,,---,0.00,VWS V14.01,2013-02-06 16:13:00,
2013-02-06 08:18:00,35.2,10.9,30.01,East,79,1.0,1.0,36,0.00,,---,0.00,VWS V14.01,2013-02-06 16:18:00,
2013-02-06 08:23:00,36.5,12.7,30.01,NNE,30,0.0,1.0,37,0.00,,---,0.00,VWS V14.01,2013-02-06 16:23:00,
2013-02-06 08:28:00,37.4,12.9,30.01,East,82,1.0,2.0,36,0.00,,---,0.00,VWS V14.01,2013-02-06 16:28:00,
2013-02-06 08:33:00,38.1,14.8,30.01,NNW,333,1.0,2.0,38,0.00,,---,0.00,VWS V14.01,2013-02-06 16:33:00,
2013-02-06 08:38:00,38.7,17.0,30.01,NNE,24,0.0,1.0,41,0.00,,---,0.00,VWS V14.01,2013-02-06 16:38:00,
2013-02-06 08:43:00,39.4,18.2,30.00,NNW,336,1.0,2.0,42,0.00,,---,0.00,VWS V14.01,2013-02-06 16:43:00,
2013-02-06 08:48:00,40.2,19.0,30.00,NE,40,2.0,2.0,42,0.00,,---,0.00,VWS V14.01,2013-02-06 16:48:00,
2013-02-06 08:53:00,40.9,19.0,30.00,North,9,0.0,10.0,41,0.00,,---,0.00,VWS V14.01,2013-02-06 16:53:00,
2013-02-06 08:58:00,41.4,18.9,30.01,ENE,67,2.0,4.0,40,0.00,,---,0.00,VWS V14.01,2013-02-06 16:58:00,
2013-02-06 09:03:00,41.5,19.0,30.01,NE,45,2.0,2.0,40,0.00,,---,0.00,VWS V14.01,2013-02-06 17:03:00,
2013-02-06 09:08:00,41.6,18.5,30.01,NE,42,4.0,5.0,39,0.00,,---,0.00,VWS V14.01,2013-02-06 17:08:00,
2013-02-06 09:13:00,41.6,17.3,30.01,ENE,60,1.0,5.0,37,0.00,,---,0.00,VWS V14.01,2013-02-06 17:13:00,
2013-02-06 09:18:00,41.5,17.2,30.02,NE,36,0.0,5.0,37,0.00,,---,0.00,VWS V14.01,2013-02-06 17:18:00,
2013-02-06 09:23:00,41.7,17.4,30.02,NE,49,0.0,1.0,37,0.00,,---,0.00,VWS V14.01,2013-02-06 17:23:00,
2013-02-06 09:28:00,41.9,16.3,30.01,ENE,67,1.0,4.0,35,0.00,,---,0.00,VWS V14.01,2013-02-06 17:28:00,
2013-02-06 09:33:00,42.2,16.5,30.01,NNE,32,0.0,3.0,35,0.00,,---,0.00,VWS V14.01,2013-02-06 17:33:00,
2013-02-06 09:38:00,42.2,15.2,30.01,ENE,65,0.0,6.0,33,0.00,,---,0.00,VWS V14.01,2013-02-06 17:38:00,
2013-02-06 09:43:00,42.2,15.2,30.01,NE,39,1.0,5.0,33,0.00,,---,0.00,VWS V14.01,2013-02-06 17:43:00,
2013-02-06 09:48:00,42.3,14.6,30.02,ENE,65,2.0,3.0,32,0.00,,---,0.00,VWS V14.01,2013-02-06 17:48:00,
2013-02-06 09:53:00,42.4,13.2,30.03,NE,45,1.0,7.0,30,0.00,,---,0.00,VWS V14.01,2013-02-06 17:53:00,
2013-02-06 09:59:00,42.5,13.3,30.03,NNE,31,1.0,4.0,30,0.00,,---,0.00,VWS V14.01,2013-02-06 17:59:00,
2013-02-06 10:04:00,42.5,13.3,30.03,NNE,20,3.0,3.0,30,0.00,,---,0.00,VWS V14.01,2013-02-06 18:04:00,
2013-02-06 10:09:00,42.9,14.4,30.03,North,8,7.0,7.0,31,0.00,,---,0.00,VWS V14.01,2013-02-06 18:09:00,
2013-02-06 10:14:00,42.7,13.4,30.04,ENE,74,2.0,4.0,30,0.00,,---,0.00,VWS V14.01,2013-02-06 18:14:00,
2013-02-06 10:19:00,42.7,14.2,30.03,NE,48,0.0,4.0,31,0.00,,---,0.00,VWS V14.01,2013-02-06 18:19:00,
2013-02-06 10:24:00,43.0,13.7,30.03,SE,131,0.0,2.0,30,0.00,,---,0.00,VWS V14.01,2013-02-06 18:24:00,
2013-02-06 10:29:00,43.3,14.0,30.03,ESE,121,0.0,3.0,30,0.00,,---,0.00,VWS V14.01,2013-02-06 18:29:00,
2013-02-06 10:34:00,43.7,14.3,30.03,East,98,0.0,3.0,30,0.00,,---,0.00,VWS V14.01,2013-02-06 18:34:00,
2013-02-06 10:39:00,43.9,13.7,30.02,East,84,2.0,4.0,29,0.00,,---,0.00,VWS V14.01,2013-02-06 18:39:00,
2013-02-06 10:44:00,43.9,14.5,30.02,SE,126,1.0,2.0,30,0.00,,---,0.00,VWS V14.01,2013-02-06 18:44:00,
2013-02-06 10:49:00,43.9,13.7,30.02,ENE,78,0.0,2.0,29,0.00,,---,0.00,VWS V14.01,2013-02-06 18:49:00,
2013-02-06 10:54:00,43.9,14.5,30.02,ENE,70,2.0,3.0,30,0.00,,---,0.00,VWS V14.01,2013-02-06 18:54:00,
2013-02-06 10:59:00,44.1,14.7,30.02,NNE,21,0.0,4.0,30,0.00,,---,0.00,VWS V14.01,2013-02-06 18:59:00,
2013-02-06 11:04:00,44.2,14.8,30.01,ENE,78,4.0,4.0,30,0.00,,---,0.00,VWS V14.01,2013-02-06 19:04:00,
2013-02-06 11:09:00,44.3,14.8,30.01,ESE,111,5.0,5.0,30,0.00,,---,0.00,VWS V14.01,2013-02-06 19:09:00,
2013-02-06 11:14:00,44.4,14.1,30.01,NNW,336,0.0,2.0,29,0.00,,---,0.00,VWS V14.01,2013-02-06 19:14:00,
2013-02-06 11:19:00,44.7,15.2,30.01,NW,326,3.0,8.0,30,0.00,,---,0.00,VWS V14.01,2013-02-06 19:19:00,
2013-02-06 11:24:00,44.3,14.1,30.01,NE,37,1.0,4.0,29,0.00,,---,0.00,VWS V14.01,2013-02-06 19:24:00,
2013-02-06 11:29:00,44.2,15.5,30.01,NNE,27,2.0,2.0,31,0.00,,---,0.00,VWS V14.01,2013-02-06 19:29:00,
2013-02-06 11:34:00,44.5,15.0,30.01,ENE,65,1.0,6.0,30,0.00,,---,0.00,VWS V14.01,2013-02-06 19:34:00,
2013-02-06 11:39:00,44.4,14.9,30.01,East,84,1.0,3.0,30,0.00,,---,0.00,VWS V14.01,2013-02-06 19:39:00,
2013-02-06 11:44:00,44.2,14.0,30.01,SE,127,0.0,2.0,29,0.00,,---,0.00,VWS V14.01,2013-02-06 19:44:00,
2013-02-06 11:49:00,44.4,14.9,30.01,ENE,63,1.0,1.0,30,0.00,,---,0.00,VWS V14.01,2013-02-06 19:49:00,
2013-02-06 11:54:00,44.9,14.6,30.01,NE,34,3.0,4.0,29,0.00,,---,0.00,VWS V14.01,2013-02-06 19:54:00,
2013-02-06 11:59:00,44.5,14.2,30.01,ENE,76,1.0,4.0,29,0.00,,---,0.00,VWS V14.01,2013-02-06 19:59:00,
2013-02-06 12:04:00,44.8,15.3,30.01,NNE,15,1.0,2.0,30,0.00,,---,0.00,VWS V14.01,2013-02-06 20:04:00,
2013-02-06 12:09:00,45.0,15.4,30.01,ENE,57,2.0,2.0,30,0.00,,---,0.00,VWS V14.01,2013-02-06 20:09:00,
2013-02-06 12:14:00,45.1,14.8,30.01,ESE,108,1.0,1.0,29,0.00,,---,0.00,VWS V14.01,2013-02-06 20:14:00,
2013-02-06 12:20:00,45.3,14.1,30.00,NNE,23,6.0,7.0,28,0.00,,---,0.00,VWS V14.01,2013-02-06 20:20:00,
2013-02-06 12:25:00,45.2,14.1,30.00,North,8,2.0,4.0,28,0.00,,---,0.00,VWS V14.01,2013-02-06 20:25:00,
2013-02-06 12:30:00,45.7,12.8,30.00,ENE,75,1.0,1.0,26,0.00,,---,0.00,VWS V14.01,2013-02-06 20:30:00,
2013-02-06 12:35:00,45.9,13.0,30.00,ESE,111,1.0,2.0,26,0.00,,---,0.00,VWS V14.01,2013-02-06 20:35:00,
2013-02-06 12:40:00,46.1,13.1,30.00,ENE,71,1.0,4.0,26,0.00,,---,0.00,VWS V14.01,2013-02-06 20:40:00,
2013-02-06 12:45:00,46.3,8.5,30.00,ENE,70,1.0,5.0,21,0.00,,---,0.00,VWS V14.01,2013-02-06 20:45:00,
2013-02-06 12:50:00,46.5,9.7,30.00,NE,50,1.0,4.0,22,0.00,,---,0.00,VWS V14.01,2013-02-06 20:50:00,
2013-02-06 12:55:00,46.2,6.2,30.00,ENE,63,0.0,2.0,19,0.00,,---,0.00,VWS V14.01,2013-02-06 20:55:00,
2013-02-06 13:00:00,46.1,10.4,30.00,NNE,18,2.0,4.0,23,0.00,,---,0.00,VWS V14.01,2013-02-06 21:00:00,
2013-02-06 13:05:00,46.5,6.5,29.99,East,101,2.0,2.0,19,0.00,,---,0.00,VWS V14.01,2013-02-06 21:05:00,
2013-02-06 13:10:00,47.0,1.8,29.99,NNE,25,6.0,6.0,15,0.00,,---,0.00,VWS V14.01,2013-02-06 21:10:00,
2013-02-06 13:15:00,47.3,0.5,29.99,North,349,3.0,4.0,14,0.00,,---,0.00,VWS V14.01,2013-02-06 21:15:00,
2013-02-06 13:20:00,47.7,0.9,29.99,NE,41,1.0,3.0,14,0.00,,---,0.00,VWS V14.01,2013-02-06 21:20:00,
2013-02-06 13:25:00,47.8,0.9,29.99,NNW,337,1.0,1.0,10,0.00,,---,0.00,VWS V14.01,2013-02-06 21:25:00,
2013-02-06 13:30:00,48.0,0.9,29.99,North,349,4.0,4.0,10,0.00,,---,0.00,VWS V14.01,2013-02-06 21:30:00,
2013-02-06 13:35:00,48.2,0.9,29.99,NNW,327,2.0,3.0,10,0.00,,---,0.00,VWS V14.01,2013-02-06 21:35:00,
2013-02-06 13:40:00,48.2,0.9,29.99,NNW,342,2.0,2.0,10,0.00,,---,0.00,VWS V14.01,2013-02-06 21:40:00,
2013-02-06 13:45:00,47.9,0.9,30.00,West,276,1.0,3.0,9,0.00,,---,0.00,VWS V14.01,2013-02-06 21:45:00,
2013-02-06 13:50:00,47.9,0.9,30.00,NE,38,1.0,2.0,9,0.00,,---,0.00,VWS V14.01,2013-02-06 21:50:00,
2013-02-06 13:55:00,48.0,0.9,29.99,NW,321,1.0,2.0,8,0.00,,---,0.00,VWS V14.01,2013-02-06 21:55:00,
2013-02-06 14:00:00,48.3,0.9,30.00,North,359,1.0,2.0,7,0.00,,---,0.00,VWS V14.01,2013-02-06 22:00:00,
2013-02-06 14:05:00,48.4,0.9,30.00,NNE,28,2.0,8.0,7,0.00,,---,0.00,VWS V14.01,2013-02-06 22:05:00,
2013-02-06 14:10:00,48.3,0.9,30.00,WNW,301,4.0,4.0,8,0.00,,---,0.00,VWS V14.01,2013-02-06 22:10:00,
2013-02-06 14:15:00,48.2,0.9,30.00,NE,37,3.0,3.0,7,0.00,,---,0.00,VWS V14.01,2013-02-06 22:15:00,
2013-02-06 14:20:00,48.2,0.9,30.00,NE,37,0.0,4.0,8,0.00,,---,0.00,VWS V14.01,2013-02-06 22:20:00,
2013-02-06 14:25:00,48.2,0.9,30.00,North,4,2.0,7.0,7,0.00,,---,0.00,VWS V14.01,2013-02-06 22:25:00,
2013-02-06 14:30:00,47.9,0.9,30.00,NNW,338,1.0,1.0,10,0.00,,---,0.00,VWS V14.01,2013-02-06 22:30:00,
2013-02-06 14:35:00,47.7,0.9,30.00,North,1,1.0,3.0,8,0.00,,---,0.00,VWS V14.01,2013-02-06 22:35:00,
2013-02-06 14:40:00,47.4,0.9,30.00,NNW,345,0.0,0.0,8,0.00,,---,0.00,VWS V14.01,2013-02-06 22:40:00,
2013-02-06 14:45:00,47.1,0.9,30.00,NNW,332,2.0,4.0,9,0.00,,---,0.00,VWS V14.01,2013-02-06 22:45:00,
2013-02-06 14:50:00,47.1,0.9,30.00,WNW,285,2.0,2.0,8,0.00,,---,0.00,VWS V14.01,2013-02-06 22:50:00,
2013-02-06 14:55:00,47.1,0.9,30.00,NNE,12,0.0,0.0,10,0.00,,---,0.00,VWS V14.01,2013-02-06 22:55:00,
2013-02-06 15:00:00,47.1,0.9,30.00,WNW,290,2.0,2.0,8,0.00,,---,0.00,VWS V14.01,2013-02-06 23:00:00,
2013-02-06 15:05:00,47.0,0.9,30.00,NNE,30,3.0,6.0,10,0.00,,---,0.00,VWS V14.01,2013-02-06 23:05:00,
2013-02-06 15:11:00,46.8,0.9,30.01,NW,319,1.0,2.0,9,0.00,,---,0.00,VWS V14.01,2013-02-06 23:11:00,
2013-02-06 15:16:00,46.7,0.9,30.01,North,8,2.0,3.0,9,0.00,,---,0.00,VWS V14.01,2013-02-06 23:16:00,
2013-02-06 15:21:00,46.4,0.9,30.01,NE,49,0.0,1.0,10,0.00,,---,0.00,VWS V14.01,2013-02-06 23:21:00,
2013-02-06 15:26:00,46.1,0.9,30.01,NNE,22,0.0,0.0,9,0.00,,---,0.00,VWS V14.01,2013-02-06 23:26:00,
2013-02-06 15:31:00,45.9,0.9,30.02,WNW,295,3.0,4.0,6,0.00,,---,0.00,VWS V14.01,2013-02-06 23:31:00,
2013-02-06 15:36:00,45.4,0.9,30.02,NNE,23,3.0,4.0,8,0.00,,---,0.00,VWS V14.01,2013-02-06 23:36:00,
2013-02-06 15:41:00,45.2,0.9,30.02,NE,37,0.0,0.0,8,0.00,,---,0.00,VWS V14.01,2013-02-06 23:41:00,
2013-02-06 15:46:00,44.9,0.9,30.02,NNE,26,0.0,2.0,9,0.00,,---,0.00,VWS V14.01,2013-02-06 23:46:00,
2013-02-06 15:51:00,44.6,0.9,30.03,North,1,0.0,2.0,10,0.00,,---,0.00,VWS V14.01,2013-02-06 23:51:00,
2013-02-06 15:56:00,44.6,0.9,30.03,ENE,58,2.0,2.0,12,0.00,,---,0.00,VWS V14.01,2013-02-06 23:56:00,
2013-02-06 16:01:00,44.4,0.9,30.03,NE,36,1.0,3.0,12,0.00,,---,0.00,VWS V14.01,2013-02-07 00:01:00,
2013-02-06 16:06:00,44.1,0.9,30.03,NNE,31,2.0,2.0,13,0.00,,---,0.00,VWS V14.01,2013-02-07 00:06:00,
2013-02-06 16:11:00,43.7,0.9,30.03,NW,305,0.0,4.0,12,0.00,,---,0.00,VWS V14.01,2013-02-07 00:11:00,
2013-02-06 16:16:00,43.5,0.9,30.03,WNW,301,0.0,2.0,12,0.00,,---,0.00,VWS V14.01,2013-02-07 00:16:00,
2013-02-06 16:21:00,43.3,0.9,30.03,WNW,299,0.0,1.0,13,0.00,,---,0.00,VWS V14.01,2013-02-07 00:21:00,
2013-02-06 16:26:00,43.1,0.9,30.03,NW,314,1.0,1.0,13,0.00,,---,0.00,VWS V14.01,2013-02-07 00:26:00,
2013-02-06 16:31:00,42.9,0.9,30.03,NW,317,0.0,1.0,12,0.00,,---,0.00,VWS V14.01,2013-02-07 00:31:00,
2013-02-06 16:36:00,42.6,0.9,30.03,North,352,0.0,0.0,11,0.00,,---,0.00,VWS V14.01,2013-02-07 00:36:00,
2013-02-06 16:41:00,42.4,0.9,30.03,WNW,294,0.0,1.0,12,0.00,,---,0.00,VWS V14.01,2013-02-07 00:41:00,
2013-02-06 16:46:00,42.2,0.9,30.04,NNW,335,0.0,0.0,12,0.00,,---,0.00,VWS V14.01,2013-02-07 00:46:00,
2013-02-06 16:51:00,41.9,0.9,30.04,NNW,335,0.0,0.0,13,0.00,,---,0.00,VWS V14.01,2013-02-07 00:51:00,
2013-02-06 16:56:00,41.4,0.9,30.04,NNW,335,0.0,0.0,13,0.00,,---,0.00,VWS V14.01,2013-02-07 00:56:00,
2013-02-06 17:01:00,40.7,0.9,30.04,NNW,334,0.0,0.0,13,0.00,,---,0.00,VWS V14.01,2013-02-07 01:01:00,
2013-02-06 17:06:00,40.2,0.9,30.04,NNW,334,0.0,0.0,14,0.00,,---,0.00,VWS V14.01,2013-02-07 01:06:00,
2013-02-06 17:11:00,39.5,0.9,30.04,NNW,334,0.0,0.0,14,0.00,,---,0.00,VWS V14.01,2013-02-07 01:11:00,
2013-02-06 17:16:00,38.8,0.9,30.04,NNW,334,0.0,0.0,15,0.00,,---,0.00,VWS V14.01,2013-02-07 01:16:00,
2013-02-06 17:21:00,38.0,0.9,30.04,NNW,334,0.0,0.0,16,0.00,,---,0.00,VWS V14.01,2013-02-07 01:21:00,
2013-02-06 17:27:00,37.3,0.9,30.04,NNW,334,0.0,0.0,17,0.00,,---,0.00,VWS V14.01,2013-02-07 01:27:00,
2013-02-06 17:32:00,36.5,0.9,30.04,NNW,334,1.0,1.0,20,0.00,,---,0.00,VWS V14.01,2013-02-07 01:32:00,
2013-02-06 17:37:00,35.6,0.5,30.05,NNW,334,0.0,0.0,22,0.00,,---,0.00,VWS V14.01,2013-02-07 01:37:00,
2013-02-06 17:42:00,34.6,0.6,30.05,NNW,334,0.0,0.0,23,0.00,,---,0.00,VWS V14.01,2013-02-07 01:42:00,
2013-02-06 17:47:00,33.8,1.3,30.05,NNW,334,0.0,0.0,21,0.00,,---,0.00,VWS V14.01,2013-02-07 01:47:00,
2013-02-06 17:52:00,33.2,1.2,30.05,NNW,334,0.0,0.0,25,0.00,,---,0.00,VWS V14.01,2013-02-07 01:52:00,
2013-02-06 17:57:00,32.7,0.1,30.05,SSW,203,0.0,0.0,24,0.00,,---,0.00,VWS V14.01,2013-02-07 01:57:00,
2013-02-06 18:02:00,32.1,1.1,30.05,SSW,203,0.0,0.0,26,0.00,,---,0.00,VWS V14.01,2013-02-07 02:02:00,
2013-02-06 18:07:00,31.3,0.4,30.06,SSW,203,0.0,0.0,26,0.00,,---,0.00,VWS V14.01,2013-02-07 02:07:00,
2013-02-06 18:12:00,30.7,0.7,30.06,SSW,203,0.0,0.0,27,0.00,,---,0.00,VWS V14.01,2013-02-07 02:12:00,
2013-02-06 18:17:00,30.3,0.7,30.06,SSW,203,0.0,0.0,26,0.00,,---,0.00,VWS V14.01,2013-02-07 02:17:00,
2013-02-06 18:22:00,29.9,0.1,30.06,SSW,203,0.0,0.0,26,0.00,,---,0.00,VWS V14.01,2013-02-07 02:22:00,
2013-02-06 18:27:00,29.6,0.5,30.07,SSW,203,0.0,0.0,28,0.00,,---,0.00,VWS V14.01,2013-02-07 02:27:00,
2013-02-06 18:32:00,29.2,1.6,30.07,SSW,203,0.0,0.0,30,0.00,,---,0.00,VWS V14.01,2013-02-07 02:32:00,
2013-02-06 18:37:00,28.8,1.3,30.07,SSW,203,0.0,0.0,28,0.00,,---,0.00,VWS V14.01,2013-02-07 02:37:00,
2013-02-06 18:42:00,28.4,0.2,30.07,SSW,203,0.0,0.0,29,0.00,,---,0.00,VWS V14.01,2013-02-07 02:42:00,
2013-02-06 18:47:00,28.1,0.0,30.07,SSW,203,0.0,0.0,29,0.00,,---,0.00,VWS V14.01,2013-02-07 02:47:00,
2013-02-06 18:52:00,27.9,0.6,30.07,SSW,203,0.0,0.0,29,0.00,,---,0.00,VWS V14.01,2013-02-07 02:52:00,
2013-02-06 18:57:00,27.8,0.5,30.08,SSW,203,0.0,0.0,28,0.00,,---,0.00,VWS V14.01,2013-02-07 02:57:00,
2013-02-06 19:02:00,27.6,0.9,30.08,SSW,203,0.0,0.0,31,0.00,,---,0.00,VWS V14.01,2013-02-07 03:02:00,
2013-02-06 19:07:00,27.2,0.6,30.08,SSW,203,0.0,0.0,31,0.00,,---,0.00,VWS V14.01,2013-02-07 03:07:00,
2013-02-06 19:12:00,26.8,2.2,30.08,SSW,203,0.0,0.0,34,0.00,,---,0.00,VWS V14.01,2013-02-07 03:12:00,
2013-02-06 19:17:00,26.4,3.7,30.08,SSW,203,0.0,0.0,37,0.00,,---,0.00,VWS V14.01,2013-02-07 03:17:00,
2013-02-06 19:22:00,26.2,3.5,30.08,SSW,203,0.0,0.0,37,0.00,,---,0.00,VWS V14.01,2013-02-07 03:22:00,
2013-02-06 19:27:00,26.0,3.9,30.09,SSW,203,0.0,0.0,38,0.00,,---,0.00,VWS V14.01,2013-02-07 03:27:00,
2013-02-06 19:32:00,25.8,0.7,30.09,SSW,203,0.0,0.0,33,0.00,,---,0.00,VWS V14.01,2013-02-07 03:32:00,
2013-02-06 19:37:00,25.8,4.3,30.09,SSW,204,0.0,0.0,39,0.00,,---,0.00,VWS V14.01,2013-02-07 03:37:00,
2013-02-06 19:43:00,25.6,3.5,30.09,SSW,204,0.0,0.0,38,0.00,,---,0.00,VWS V14.01,2013-02-07 03:43:00,
2013-02-06 19:48:00,25.4,1.6,30.09,SSW,204,0.0,0.0,35,0.00,,---,0.00,VWS V14.01,2013-02-07 03:48:00,
2013-02-06 19:53:00,25.2,0.8,30.10,SSW,204,0.0,0.0,34,0.00,,---,0.00,VWS V14.01,2013-02-07 03:53:00,
2013-02-06 19:58:00,25.1,4.7,30.10,SSW,205,0.0,0.0,41,0.00,,---,0.00,VWS V14.01,2013-02-07 03:58:00,
2013-02-06 20:03:00,24.8,6.0,30.10,SSW,204,0.0,0.0,44,0.00,,---,0.00,VWS V14.01,2013-02-07 04:03:00,
2013-02-06 20:08:00,24.5,5.2,30.10,SSW,204,0.0,0.0,43,0.00,,---,0.00,VWS V14.01,2013-02-07 04:08:00,
2013-02-06 20:13:00,24.2,4.4,30.10,SSW,204,0.0,0.0,42,0.00,,---,0.00,VWS V14.01,2013-02-07 04:13:00,
2013-02-06 20:18:00,24.1,6.3,30.11,SSW,204,0.0,0.0,46,0.00,,---,0.00,VWS V14.01,2013-02-07 04:18:00,
2013-02-06 20:23:00,23.8,3.0,30.11,SSW,204,0.0,0.0,40,0.00,,---,0.00,VWS V14.01,2013-02-07 04:23:00,
2013-02-06 20:28:00,23.7,2.4,30.11,SSW,204,0.0,0.0,39,0.00,,---,0.00,VWS V14.01,2013-02-07 04:28:00,
2013-02-06 20:33:00,23.7,6.0,30.12,SSW,204,0.0,0.0,46,0.00,,---,0.00,VWS V14.01,2013-02-07 04:33:00,
2013-02-06 20:38:00,23.5,6.2,30.12,SSW,204,0.0,0.0,47,0.00,,---,0.00,VWS V14.01,2013-02-07 04:38:00,
2013-02-06 20:43:00,23.2,4.0,30.11,SSW,204,0.0,0.0,43,0.00,,---,0.00,VWS V14.01,2013-02-07 04:43:00,
2013-02-06 20:48:00,23.2,2.5,30.12,SSW,204,0.0,0.0,40,0.00,,---,0.00,VWS V14.01,2013-02-07 04:48:00,
2013-02-06 20:53:00,23.1,4.4,30.11,SSW,204,0.0,0.0,44,0.00,,---,0.00,VWS V14.01,2013-02-07 04:53:00,
2013-02-06 20:58:00,22.8,4.2,30.12,SSW,204,0.0,0.0,44,0.00,,---,0.00,VWS V14.01,2013-02-07 04:58:00,
2013-02-06 21:00:00,22.8,2.6,30.12,SSW,204,0.0,0.0,41,0.00,,---,0.00,VWS V14.01,2013-02-07 05:00:00,
2013-02-06 21:01:00,22.8,4.7,30.12,SSW,204,0.0,0.0,45,0.00,,---,0.00,VWS V14.01,2013-02-07 05:01:00,
2013-02-06 21:02:00,22.8,5.1,30.12,SSW,204,0.0,0.0,46,0.00,,---,0.00,VWS V14.01,2013-02-07 05:02:00,
2013-02-06 21:07:00,22.7,4.6,30.12,SSW,203,0.0,0.0,45,0.00,,---,0.00,VWS V14.01,2013-02-07 05:07:00,
2013-02-06 21:11:00,22.5,4.9,30.12,SSW,204,0.0,0.0,46,0.00,,---,0.00,VWS V14.01,2013-02-07 05:11:00,
2013-02-06 21:16:00,22.4,1.8,30.12,SSW,204,0.0,0.0,40,0.00,,---,0.00,VWS V14.01,2013-02-07 05:16:00,
2013-02-06 21:21:00,22.6,0.8,30.12,SSW,204,0.0,0.0,38,0.00,,---,0.00,VWS V14.01,2013-02-07 05:21:00,
2013-02-06 21:26:00,22.6,3.0,30.12,SSW,204,0.0,0.0,42,0.00,,---,0.00,VWS V14.01,2013-02-07 05:26:00,
2013-02-06 21:32:00,22.3,2.2,30.13,SSW,203,0.0,0.0,41,0.00,,---,0.00,VWS V14.01,2013-02-07 05:32:00,
2013-02-06 21:37:00,22.3,3.2,30.13,SSW,203,0.0,0.0,43,0.00,,---,0.00,VWS V14.01,2013-02-07 05:37:00,
2013-02-06 21:42:00,22.0,1.4,30.14,SSW,204,0.0,0.0,40,0.00,,---,0.00,VWS V14.01,2013-02-07 05:42:00,
2013-02-06 21:47:00,21.9,2.8,30.14,SSW,205,0.0,0.0,43,0.00,,---,0.00,VWS V14.01,2013-02-07 05:47:00,
2013-02-06 21:52:00,21.7,4.6,30.14,SSW,204,0.0,0.0,47,0.00,,---,0.00,VWS V14.01,2013-02-07 05:52:00,
2013-02-06 21:57:00,21.8,3.7,30.14,SSW,204,0.0,0.0,45,0.00,,---,0.00,VWS V14.01,2013-02-07 05:57:00,
2013-02-06 22:02:00,21.8,1.2,30.14,SSW,204,0.0,0.0,40,0.00,,---,0.00,VWS V14.01,2013-02-07 06:02:00,
2013-02-06 22:07:00,22.0,3.4,30.14,SSW,204,0.0,0.0,44,0.00,,---,0.00,VWS V14.01,2013-02-07 06:07:00,
2013-02-06 22:12:00,21.8,3.7,30.14,SSW,204,0.0,0.0,45,0.00,,---,0.00,VWS V14.01,2013-02-07 06:12:00,
2013-02-06 22:17:00,21.5,2.0,30.14,SSW,203,0.0,0.0,42,0.00,,---,0.00,VWS V14.01,2013-02-07 06:17:00,
2013-02-06 22:22:00,21.2,1.2,30.15,SSW,204,0.0,0.0,41,0.00,,---,0.00,VWS V14.01,2013-02-07 06:22:00,
2013-02-06 22:27:00,21.1,0.0,30.15,SSW,204,0.0,0.0,39,0.00,,---,0.00,VWS V14.01,2013-02-07 06:27:00,
2013-02-06 22:32:00,21.0,0.5,30.15,SSW,203,0.0,0.0,39,0.00,,---,0.00,VWS V14.01,2013-02-07 06:32:00,
2013-02-06 22:37:00,21.0,1.0,30.15,SSW,204,0.0,0.0,41,0.00,,---,0.00,VWS V14.01,2013-02-07 06:37:00,
2013-02-06 22:42:00,21.1,1.1,30.15,SSW,204,0.0,0.0,41,0.00,,---,0.00,VWS V14.01,2013-02-07 06:42:00,
2013-02-06 22:48:00,21.1,0.6,30.15,SSW,204,0.0,0.0,38,0.00,,---,0.00,VWS V14.01,2013-02-07 06:48:00,
2013-02-06 22:53:00,21.3,1.3,30.15,SSW,204,0.0,0.0,41,0.00,,---,0.00,VWS V14.01,2013-02-07 06:53:00,
2013-02-06 22:58:00,21.2,0.1,30.15,SSW,204,0.0,0.0,39,0.00,,---,0.00,VWS V14.01,2013-02-07 06:58:00,
2013-02-06 23:03:00,21.0,2.0,30.15,SSW,203,0.0,0.0,43,0.00,,---,0.00,VWS V14.01,2013-02-07 07:03:00,
2013-02-06 23:08:00,20.8,0.3,30.16,SSW,204,0.0,0.0,39,0.00,,---,0.00,VWS V14.01,2013-02-07 07:08:00,
2013-02-06 23:13:00,20.9,0.9,30.16,SSW,204,0.0,0.0,41,0.00,,---,0.00,VWS V14.01,2013-02-07 07:13:00,
2013-02-06 23:18:00,20.9,0.4,30.16,SSW,204,0.0,0.0,37,0.00,,---,0.00,VWS V14.01,2013-02-07 07:18:00,
2013-02-06 23:23:00,21.1,0.0,30.16,SSW,204,0.0,0.0,39,0.00,,---,0.00,VWS V14.01,2013-02-07 07:23:00,
2013-02-06 23:28:00,20.9,0.0,30.16,SSW,204,0.0,0.0,37,0.00,,---,0.00,VWS V14.01,2013-02-07 07:28:00,
2013-02-06 23:33:00,20.6,0.0,30.16,SSW,204,0.0,0.0,37,0.00,,---,0.00,VWS V14.01,2013-02-07 07:33:00,
2013-02-06 23:38:00,20.4,0.0,30.16,SSW,204,0.0,0.0,36,0.00,,---,0.00,VWS V14.01,2013-02-07 07:38:00,
2013-02-06 23:43:00,20.5,0.6,30.16,SSW,204,0.0,0.0,41,0.00,,---,0.00,VWS V14.01,2013-02-07 07:43:00,
2013-02-06 23:48:00,20.8,1.3,30.17,SSW,204,0.0,0.0,42,0.00,,---,0.00,VWS V14.01,2013-02-07 07:48:00,
2013-02-06 23:53:00,20.7,3.7,30.17,SSW,203,0.0,0.0,47,0.00,,---,0.00,VWS V14.01,2013-02-07 07:53:00,
2013-02-06 23:58:00,20.4,2.5,30.17,SSW,204,0.0,0.0,45,0.00,,---,0.00,VWS V14.01,2013-02-07 07:58:00,